sensor_id;sensor_type;location;lat;lon;timestamp;P1;durP1;ratioP1;P2;durP2;ratioP2
67986;SDS011;54767;53.800;15.956;2023-08-07T00:00:49;0.30;;;0.20;;
67986;SDS011;54767;53.800;15.956;2023-08-07T00:03:33;1.60;;;0.20;;
67986;SDS011;54767;53.800;15.956;2023-08-07T00:06:03;0.20;;;0.20;;
67986;SDS011;54767;53.800;15.956;2023-08-07T00:08:31;1.10;;;0.50;;
67986;SDS011;54767;53.800;15.956;2023-08-07T00:11:04;0.50;;;0.30;;
67986;SDS011;54767;53.800;15.956;2023-08-07T00:13:34;0.60;;;0.30;;
67986;SDS011;54767;53.800;15.956;2023-08-07T00:16:02;0.20;;;0.20;;
67986;SDS011;54767;53.800;15.956;2023-08-07T00:18:31;0.30;;;0.30;;
67986;SDS011;54767;53.800;15.956;2023-08-07T00:20:59;0.20;;;0.20;;
67986;SDS011;54767;53.800;15.956;2023-08-07T00:23:28;0.30;;;0.30;;
67986;SDS011;54767;53.800;15.956;2023-08-07T00:25:56;0.20;;;0.20;;
67986;SDS011;54767;53.800;15.956;2023-08-07T00:28:24;0.90;;;0.40;;
67986;SDS011;54767;53.800;15.956;2023-08-07T00:30:52;1.00;;;0.40;;
67986;SDS011;54767;53.800;15.956;2023-08-07T00:33:21;1.40;;;0.50;;
67986;SDS011;54767;53.800;15.956;2023-08-07T00:35:50;0.60;;;0.60;;
67986;SDS011;54767;53.800;15.956;2023-08-07T00:38:19;0.90;;;0.90;;
67986;SDS011;54767;53.800;15.956;2023-08-07T00:40:47;3.10;;;0.90;;
67986;SDS011;54767;53.800;15.956;2023-08-07T00:43:15;0.70;;;0.60;;
67986;SDS011;54767;53.800;15.956;2023-08-07T00:45:46;1.80;;;0.60;;
67986;SDS011;54767;53.800;15.956;2023-08-07T00:48:15;0.40;;;0.40;;
67986;SDS011;54767;53.800;15.956;2023-08-07T00:50:44;1.20;;;0.50;;
67986;SDS011;54767;53.800;15.956;2023-08-07T00:53:14;0.30;;;0.30;;
67986;SDS011;54767;53.800;15.956;2023-08-07T00:55:43;0.80;;;0.60;;
67986;SDS011;54767;53.800;15.956;2023-08-07T00:58:11;0.50;;;0.50;;
67986;SDS011;54767;53.800;15.956;2023-08-07T01:00:40;0.60;;;0.60;;
67986;SDS011;54767;53.800;15.956;2023-08-07T01:03:11;0.50;;;0.50;;
67986;SDS011;54767;53.800;15.956;2023-08-07T01:05:42;0.50;;;0.50;;
67986;SDS011;54767;53.800;15.956;2023-08-07T01:08:11;1.10;;;0.60;;
67986;SDS011;54767;53.800;15.956;2023-08-07T01:13:40;2.20;;;0.80;;
67986;SDS011;54767;53.800;15.956;2023-08-07T01:16:26;0.40;;;0.40;;
67986;SDS011;54767;53.800;15.956;2023-08-07T01:19:00;0.90;;;0.50;;
67986;SDS011;54767;53.800;15.956;2023-08-07T01:21:32;1.70;;;0.60;;
67986;SDS011;54767;53.800;15.956;2023-08-07T01:24:01;0.60;;;0.60;;
67986;SDS011;54767;53.800;15.956;2023-08-07T01:26:29;1.50;;;0.60;;
67986;SDS011;54767;53.800;15.956;2023-08-07T01:29:02;0.60;;;0.50;;
67986;SDS011;54767;53.800;15.956;2023-08-07T01:31:36;0.50;;;0.50;;
67986;SDS011;54767;53.800;15.956;2023-08-07T01:34:06;0.60;;;0.50;;
67986;SDS011;54767;53.800;15.956;2023-08-07T01:36:39;0.70;;;0.60;;
67986;SDS011;54767;53.800;15.956;2023-08-07T01:39:07;0.70;;;0.70;;
67986;SDS011;54767;53.800;15.956;2023-08-07T01:41:36;1.30;;;0.40;;
67986;SDS011;54767;53.800;15.956;2023-08-07T01:44:05;1.60;;;0.40;;
67986;SDS011;54767;53.800;15.956;2023-08-07T01:46:33;1.50;;;0.80;;
67986;SDS011;54767;53.800;15.956;2023-08-07T01:49:01;0.50;;;0.50;;
67986;SDS011;54767;53.800;15.956;2023-08-07T01:51:30;0.60;;;0.60;;
67986;SDS011;54767;53.800;15.956;2023-08-07T01:53:58;1.00;;;0.70;;
67986;SDS011;54767;53.800;15.956;2023-08-07T01:56:26;1.30;;;0.60;;
67986;SDS011;54767;53.800;15.956;2023-08-07T01:58:55;2.40;;;0.80;;
67986;SDS011;54767;53.800;15.956;2023-08-07T02:01:23;0.90;;;0.90;;
67986;SDS011;54767;53.800;15.956;2023-08-07T02:03:51;1.10;;;0.80;;
67986;SDS011;54767;53.800;15.956;2023-08-07T02:06:20;1.20;;;1.00;;
67986;SDS011;54767;53.800;15.956;2023-08-07T02:08:48;1.80;;;0.80;;
67986;SDS011;54767;53.800;15.956;2023-08-07T02:11:17;1.50;;;1.00;;
67986;SDS011;54767;53.800;15.956;2023-08-07T02:13:45;1.70;;;0.90;;
67986;SDS011;54767;53.800;15.956;2023-08-07T02:16:13;1.60;;;0.80;;
67986;SDS011;54767;53.800;15.956;2023-08-07T02:18:42;1.90;;;0.70;;
67986;SDS011;54767;53.800;15.956;2023-08-07T02:21:10;1.90;;;0.80;;
67986;SDS011;54767;53.800;15.956;2023-08-07T02:23:41;1.20;;;1.00;;
67986;SDS011;54767;53.800;15.956;2023-08-07T02:26:09;1.00;;;0.90;;
67986;SDS011;54767;53.800;15.956;2023-08-07T02:28:38;1.80;;;1.00;;
67986;SDS011;54767;53.800;15.956;2023-08-07T02:31:06;0.80;;;0.80;;
67986;SDS011;54767;53.800;15.956;2023-08-07T02:33:35;1.60;;;0.80;;
67986;SDS011;54767;53.800;15.956;2023-08-07T02:36:03;1.00;;;0.90;;
67986;SDS011;54767;53.800;15.956;2023-08-07T02:38:31;0.80;;;0.80;;
67986;SDS011;54767;53.800;15.956;2023-08-07T02:41:00;0.90;;;0.80;;
67986;SDS011;54767;53.800;15.956;2023-08-07T02:43:29;1.40;;;0.80;;
67986;SDS011;54767;53.800;15.956;2023-08-07T02:46:00;1.00;;;1.00;;
67986;SDS011;54767;53.800;15.956;2023-08-07T02:48:29;0.90;;;0.90;;
67986;SDS011;54767;53.800;15.956;2023-08-07T02:50:57;1.40;;;1.10;;
67986;SDS011;54767;53.800;15.956;2023-08-07T02:53:25;2.00;;;0.80;;
67986;SDS011;54767;53.800;15.956;2023-08-07T02:55:54;3.40;;;0.90;;
67986;SDS011;54767;53.800;15.956;2023-08-07T02:58:22;1.70;;;0.90;;
67986;SDS011;54767;53.800;15.956;2023-08-07T03:00:50;1.20;;;0.80;;
67986;SDS011;54767;53.800;15.956;2023-08-07T03:03:19;1.30;;;0.90;;
67986;SDS011;54767;53.800;15.956;2023-08-07T03:05:48;1.00;;;0.90;;
67986;SDS011;54767;53.800;15.956;2023-08-07T03:08:17;1.50;;;0.80;;
67986;SDS011;54767;53.800;15.956;2023-08-07T03:10:52;1.10;;;0.80;;
67986;SDS011;54767;53.800;15.956;2023-08-07T03:13:31;2.20;;;1.20;;
67986;SDS011;54767;53.800;15.956;2023-08-07T03:16:04;1.50;;;0.80;;
67986;SDS011;54767;53.800;15.956;2023-08-07T03:18:52;0.80;;;0.80;;
67986;SDS011;54767;53.800;15.956;2023-08-07T03:21:21;1.50;;;0.70;;
67986;SDS011;54767;53.800;15.956;2023-08-07T03:23:50;2.20;;;0.80;;
67986;SDS011;54767;53.800;15.956;2023-08-07T03:26:18;0.60;;;0.60;;
67986;SDS011;54767;53.800;15.956;2023-08-07T03:28:47;1.80;;;0.90;;
67986;SDS011;54767;53.800;15.956;2023-08-07T03:31:17;1.10;;;0.90;;
67986;SDS011;54767;53.800;15.956;2023-08-07T03:33:45;0.80;;;0.80;;
67986;SDS011;54767;53.800;15.956;2023-08-07T03:36:13;1.90;;;1.10;;
67986;SDS011;54767;53.800;15.956;2023-08-07T03:38:42;1.10;;;1.10;;
67986;SDS011;54767;53.800;15.956;2023-08-07T03:41:10;0.70;;;0.70;;
67986;SDS011;54767;53.800;15.956;2023-08-07T03:43:39;1.10;;;0.80;;
67986;SDS011;54767;53.800;15.956;2023-08-07T03:46:07;1.40;;;0.90;;
67986;SDS011;54767;53.800;15.956;2023-08-07T03:48:35;0.90;;;0.90;;
67986;SDS011;54767;53.800;15.956;2023-08-07T03:51:07;1.50;;;1.00;;
67986;SDS011;54767;53.800;15.956;2023-08-07T03:53:36;1.80;;;0.90;;
67986;SDS011;54767;53.800;15.956;2023-08-07T03:56:05;0.70;;;0.70;;
67986;SDS011;54767;53.800;15.956;2023-08-07T03:58:33;1.60;;;0.90;;
67986;SDS011;54767;53.800;15.956;2023-08-07T04:01:01;0.70;;;0.50;;
67986;SDS011;54767;53.800;15.956;2023-08-07T04:03:30;0.80;;;0.80;;
67986;SDS011;54767;53.800;15.956;2023-08-07T04:05:58;1.40;;;0.70;;
67986;SDS011;54767;53.800;15.956;2023-08-07T04:11:00;0.90;;;0.80;;
67986;SDS011;54767;53.800;15.956;2023-08-07T04:13:30;1.10;;;1.00;;
67986;SDS011;54767;53.800;15.956;2023-08-07T04:15:59;2.30;;;0.80;;
67986;SDS011;54767;53.800;15.956;2023-08-07T04:18:30;1.20;;;0.80;;
67986;SDS011;54767;53.800;15.956;2023-08-07T04:20:59;4.60;;;0.90;;
67986;SDS011;54767;53.800;15.956;2023-08-07T04:23:28;0.80;;;0.80;;
67986;SDS011;54767;53.800;15.956;2023-08-07T04:25:56;1.10;;;1.10;;
67986;SDS011;54767;53.800;15.956;2023-08-07T04:28:24;2.20;;;1.20;;
67986;SDS011;54767;53.800;15.956;2023-08-07T04:30:53;1.70;;;1.30;;
67986;SDS011;54767;53.800;15.956;2023-08-07T04:33:21;2.30;;;1.40;;
67986;SDS011;54767;53.800;15.956;2023-08-07T04:35:49;1.60;;;1.30;;
67986;SDS011;54767;53.800;15.956;2023-08-07T04:38:19;1.40;;;1.30;;
67986;SDS011;54767;53.800;15.956;2023-08-07T04:40:48;1.30;;;1.20;;
67986;SDS011;54767;53.800;15.956;2023-08-07T04:45:49;1.80;;;1.00;;
67986;SDS011;54767;53.800;15.956;2023-08-07T04:48:17;1.20;;;1.10;;
67986;SDS011;54767;53.800;15.956;2023-08-07T04:50:46;1.40;;;1.30;;
67986;SDS011;54767;53.800;15.956;2023-08-07T04:53:14;1.50;;;1.30;;
67986;SDS011;54767;53.800;15.956;2023-08-07T04:55:43;2.30;;;1.30;;
67986;SDS011;54767;53.800;15.956;2023-08-07T04:58:11;1.90;;;1.50;;
67986;SDS011;54767;53.800;15.956;2023-08-07T05:00:39;1.40;;;1.30;;
67986;SDS011;54767;53.800;15.956;2023-08-07T05:03:08;2.60;;;1.20;;
67986;SDS011;54767;53.800;15.956;2023-08-07T05:05:36;1.90;;;1.60;;
67986;SDS011;54767;53.800;15.956;2023-08-07T05:08:05;3.00;;;1.40;;
67986;SDS011;54767;53.800;15.956;2023-08-07T05:10:33;1.60;;;1.50;;
67986;SDS011;54767;53.800;15.956;2023-08-07T05:13:01;3.50;;;1.90;;
67986;SDS011;54767;53.800;15.956;2023-08-07T05:15:31;2.20;;;1.50;;
67986;SDS011;54767;53.800;15.956;2023-08-07T05:17:59;4.70;;;1.50;;
67986;SDS011;54767;53.800;15.956;2023-08-07T05:20:27;2.50;;;1.30;;
67986;SDS011;54767;53.800;15.956;2023-08-07T05:22:56;3.50;;;1.40;;
67986;SDS011;54767;53.800;15.956;2023-08-07T05:25:24;3.30;;;1.60;;
67986;SDS011;54767;53.800;15.956;2023-08-07T05:27:52;1.50;;;1.40;;
67986;SDS011;54767;53.800;15.956;2023-08-07T05:30:21;2.10;;;1.80;;
67986;SDS011;54767;53.800;15.956;2023-08-07T05:32:49;1.70;;;1.60;;
67986;SDS011;54767;53.800;15.956;2023-08-07T05:35:17;2.80;;;1.40;;
67986;SDS011;54767;53.800;15.956;2023-08-07T05:37:46;2.40;;;2.00;;
67986;SDS011;54767;53.800;15.956;2023-08-07T05:40:14;2.60;;;1.60;;
67986;SDS011;54767;53.800;15.956;2023-08-07T05:42:43;2.40;;;1.70;;
67986;SDS011;54767;53.800;15.956;2023-08-07T05:45:11;2.30;;;1.70;;
67986;SDS011;54767;53.800;15.956;2023-08-07T05:47:39;2.70;;;1.60;;
67986;SDS011;54767;53.800;15.956;2023-08-07T05:50:08;3.50;;;1.80;;
67986;SDS011;54767;53.800;15.956;2023-08-07T05:52:36;3.40;;;1.80;;
67986;SDS011;54767;53.800;15.956;2023-08-07T05:55:05;2.00;;;1.80;;
67986;SDS011;54767;53.800;15.956;2023-08-07T05:57:34;3.90;;;1.70;;
67986;SDS011;54767;53.800;15.956;2023-08-07T06:00:03;3.00;;;1.90;;
67986;SDS011;54767;53.800;15.956;2023-08-07T06:02:32;2.10;;;1.70;;
67986;SDS011;54767;53.800;15.956;2023-08-07T06:05:03;1.80;;;1.70;;
67986;SDS011;54767;53.800;15.956;2023-08-07T06:07:36;2.40;;;1.70;;
67986;SDS011;54767;53.800;15.956;2023-08-07T06:10:05;2.90;;;1.90;;
67986;SDS011;54767;53.800;15.956;2023-08-07T06:12:33;2.70;;;1.80;;
67986;SDS011;54767;53.800;15.956;2023-08-07T06:15:02;4.00;;;2.00;;
67986;SDS011;54767;53.800;15.956;2023-08-07T06:17:32;2.50;;;2.00;;
67986;SDS011;54767;53.800;15.956;2023-08-07T06:20:00;4.50;;;2.10;;
67986;SDS011;54767;53.800;15.956;2023-08-07T06:22:28;3.30;;;2.10;;
67986;SDS011;54767;53.800;15.956;2023-08-07T06:24:57;2.40;;;1.80;;
67986;SDS011;54767;53.800;15.956;2023-08-07T06:27:25;5.10;;;1.90;;
67986;SDS011;54767;53.800;15.956;2023-08-07T06:29:53;2.30;;;2.00;;
67986;SDS011;54767;53.800;15.956;2023-08-07T06:32:21;3.10;;;2.00;;
67986;SDS011;54767;53.800;15.956;2023-08-07T06:34:50;3.10;;;1.80;;
67986;SDS011;54767;53.800;15.956;2023-08-07T06:37:18;2.40;;;2.00;;
67986;SDS011;54767;53.800;15.956;2023-08-07T06:39:47;2.50;;;2.00;;
67986;SDS011;54767;53.800;15.956;2023-08-07T06:42:16;2.10;;;1.90;;
67986;SDS011;54767;53.800;15.956;2023-08-07T06:44:44;3.70;;;1.90;;
67986;SDS011;54767;53.800;15.956;2023-08-07T06:47:13;3.00;;;2.00;;
67986;SDS011;54767;53.800;15.956;2023-08-07T06:49:41;2.20;;;1.60;;
67986;SDS011;54767;53.800;15.956;2023-08-07T06:52:10;2.40;;;1.90;;
67986;SDS011;54767;53.800;15.956;2023-08-07T06:54:38;3.60;;;2.20;;
67986;SDS011;54767;53.800;15.956;2023-08-07T06:57:10;2.30;;;1.60;;
67986;SDS011;54767;53.800;15.956;2023-08-07T06:59:39;4.10;;;1.80;;
67986;SDS011;54767;53.800;15.956;2023-08-07T07:02:07;2.50;;;1.70;;
67986;SDS011;54767;53.800;15.956;2023-08-07T07:04:36;2.10;;;1.80;;
67986;SDS011;54767;53.800;15.956;2023-08-07T07:07:04;2.50;;;1.80;;
67986;SDS011;54767;53.800;15.956;2023-08-07T07:09:32;2.60;;;2.00;;
67986;SDS011;54767;53.800;15.956;2023-08-07T07:12:01;2.40;;;1.90;;
67986;SDS011;54767;53.800;15.956;2023-08-07T07:14:32;2.10;;;1.90;;
67986;SDS011;54767;53.800;15.956;2023-08-07T07:17:00;3.10;;;1.90;;
67986;SDS011;54767;53.800;15.956;2023-08-07T07:19:28;2.80;;;1.90;;
67986;SDS011;54767;53.800;15.956;2023-08-07T07:21:57;3.10;;;1.80;;
67986;SDS011;54767;53.800;15.956;2023-08-07T07:24:25;2.20;;;1.70;;
67986;SDS011;54767;53.800;15.956;2023-08-07T07:26:54;4.40;;;2.30;;
67986;SDS011;54767;53.800;15.956;2023-08-07T07:29:22;1.90;;;1.70;;
67986;SDS011;54767;53.800;15.956;2023-08-07T07:31:50;2.50;;;1.90;;
67986;SDS011;54767;53.800;15.956;2023-08-07T07:34:19;3.30;;;2.00;;
67986;SDS011;54767;53.800;15.956;2023-08-07T07:36:47;2.80;;;2.00;;
67986;SDS011;54767;53.800;15.956;2023-08-07T07:39:16;3.20;;;1.90;;
67986;SDS011;54767;53.800;15.956;2023-08-07T07:41:45;2.40;;;1.70;;
67986;SDS011;54767;53.800;15.956;2023-08-07T07:44:14;3.00;;;2.00;;
67986;SDS011;54767;53.800;15.956;2023-08-07T07:46:42;3.90;;;2.10;;
67986;SDS011;54767;53.800;15.956;2023-08-07T07:49:11;2.20;;;1.80;;
67986;SDS011;54767;53.800;15.956;2023-08-07T07:51:39;2.20;;;2.00;;
67986;SDS011;54767;53.800;15.956;2023-08-07T07:54:08;2.40;;;1.90;;
67986;SDS011;54767;53.800;15.956;2023-08-07T07:56:42;3.70;;;1.90;;
67986;SDS011;54767;53.800;15.956;2023-08-07T07:59:11;2.70;;;1.90;;
67986;SDS011;54767;53.800;15.956;2023-08-07T08:01:40;2.90;;;1.80;;
67986;SDS011;54767;53.800;15.956;2023-08-07T08:04:09;2.20;;;2.00;;
67986;SDS011;54767;53.800;15.956;2023-08-07T08:06:39;2.70;;;2.00;;
67986;SDS011;54767;53.800;15.956;2023-08-07T08:09:09;3.00;;;1.90;;
67986;SDS011;54767;53.800;15.956;2023-08-07T08:11:38;4.00;;;1.70;;
67986;SDS011;54767;53.800;15.956;2023-08-07T08:14:06;2.80;;;2.00;;
67986;SDS011;54767;53.800;15.956;2023-08-07T08:16:35;3.10;;;2.10;;
67986;SDS011;54767;53.800;15.956;2023-08-07T08:19:03;2.30;;;1.90;;
67986;SDS011;54767;53.800;15.956;2023-08-07T08:21:33;3.50;;;2.20;;
67986;SDS011;54767;53.800;15.956;2023-08-07T08:24:04;2.20;;;2.00;;
67986;SDS011;54767;53.800;15.956;2023-08-07T08:26:34;3.60;;;2.10;;
67986;SDS011;54767;53.800;15.956;2023-08-07T08:29:02;2.80;;;2.20;;
67986;SDS011;54767;53.800;15.956;2023-08-07T08:34:01;4.00;;;2.40;;
67986;SDS011;54767;53.800;15.956;2023-08-07T08:36:30;3.10;;;2.10;;
67986;SDS011;54767;53.800;15.956;2023-08-07T08:38:59;3.90;;;2.30;;
67986;SDS011;54767;53.800;15.956;2023-08-07T08:41:29;4.40;;;2.20;;
67986;SDS011;54767;53.800;15.956;2023-08-07T08:44:02;2.60;;;2.10;;
67986;SDS011;54767;53.800;15.956;2023-08-07T08:46:34;2.60;;;2.30;;
67986;SDS011;54767;53.800;15.956;2023-08-07T08:49:04;2.20;;;1.90;;
67986;SDS011;54767;53.800;15.956;2023-08-07T08:51:35;3.60;;;2.00;;
67986;SDS011;54767;53.800;15.956;2023-08-07T08:54:05;2.30;;;2.00;;
67986;SDS011;54767;53.800;15.956;2023-08-07T08:56:34;3.70;;;2.00;;
67986;SDS011;54767;53.800;15.956;2023-08-07T08:59:04;2.40;;;2.10;;
67986;SDS011;54767;53.800;15.956;2023-08-07T09:01:33;2.30;;;1.80;;
67986;SDS011;54767;53.800;15.956;2023-08-07T09:04:02;2.10;;;1.90;;
67986;SDS011;54767;53.800;15.956;2023-08-07T09:06:33;2.00;;;1.80;;
67986;SDS011;54767;53.800;15.956;2023-08-07T09:09:05;3.70;;;1.90;;
67986;SDS011;54767;53.800;15.956;2023-08-07T09:11:35;2.30;;;2.10;;
67986;SDS011;54767;53.800;15.956;2023-08-07T09:14:04;2.60;;;2.00;;
67986;SDS011;54767;53.800;15.956;2023-08-07T09:16:33;2.70;;;2.20;;
67986;SDS011;54767;53.800;15.956;2023-08-07T09:19:02;3.10;;;2.30;;
67986;SDS011;54767;53.800;15.956;2023-08-07T09:21:32;3.90;;;2.30;;
67986;SDS011;54767;53.800;15.956;2023-08-07T09:24:01;2.40;;;2.20;;
67986;SDS011;54767;53.800;15.956;2023-08-07T09:26:31;2.30;;;2.10;;
67986;SDS011;54767;53.800;15.956;2023-08-07T09:29:02;3.70;;;2.30;;
67986;SDS011;54767;53.800;15.956;2023-08-07T09:31:35;4.00;;;2.20;;
67986;SDS011;54767;53.800;15.956;2023-08-07T09:34:06;3.30;;;2.10;;
67986;SDS011;54767;53.800;15.956;2023-08-07T09:36:35;3.80;;;2.10;;
67986;SDS011;54767;53.800;15.956;2023-08-07T09:39:03;4.80;;;2.00;;
67986;SDS011;54767;53.800;15.956;2023-08-07T09:41:34;2.60;;;1.90;;
67986;SDS011;54767;53.800;15.956;2023-08-07T09:44:06;3.50;;;2.40;;
67986;SDS011;54767;53.800;15.956;2023-08-07T09:46:45;2.90;;;2.20;;
67986;SDS011;54767;53.800;15.956;2023-08-07T09:49:14;2.70;;;1.90;;
67986;SDS011;54767;53.800;15.956;2023-08-07T09:51:45;3.80;;;2.30;;
67986;SDS011;54767;53.800;15.956;2023-08-07T09:54:15;2.70;;;2.00;;
67986;SDS011;54767;53.800;15.956;2023-08-07T09:56:44;2.90;;;2.00;;
67986;SDS011;54767;53.800;15.956;2023-08-07T09:59:35;3.70;;;1.90;;
67986;SDS011;54767;53.800;15.956;2023-08-07T10:02:04;3.00;;;1.90;;
67986;SDS011;54767;53.800;15.956;2023-08-07T10:04:33;2.20;;;1.70;;
67986;SDS011;54767;53.800;15.956;2023-08-07T10:07:03;2.90;;;1.90;;
67986;SDS011;54767;53.800;15.956;2023-08-07T10:09:32;2.80;;;1.50;;
67986;SDS011;54767;53.800;15.956;2023-08-07T10:12:01;2.00;;;1.80;;
67986;SDS011;54767;53.800;15.956;2023-08-07T10:14:31;2.50;;;1.80;;
67986;SDS011;54767;53.800;15.956;2023-08-07T10:17:02;4.40;;;1.90;;
67986;SDS011;54767;53.800;15.956;2023-08-07T10:19:33;2.80;;;1.80;;
67986;SDS011;54767;53.800;15.956;2023-08-07T10:22:02;2.50;;;1.70;;
67986;SDS011;54767;53.800;15.956;2023-08-07T10:24:31;2.60;;;1.70;;
67986;SDS011;54767;53.800;15.956;2023-08-07T10:27:03;2.70;;;1.80;;
67986;SDS011;54767;53.800;15.956;2023-08-07T10:29:33;2.80;;;1.70;;
67986;SDS011;54767;53.800;15.956;2023-08-07T10:32:03;2.50;;;2.20;;
67986;SDS011;54767;53.800;15.956;2023-08-07T10:34:34;2.70;;;1.90;;
67986;SDS011;54767;53.800;15.956;2023-08-07T10:37:06;3.10;;;2.10;;
67986;SDS011;54767;53.800;15.956;2023-08-07T10:39:36;3.70;;;2.10;;
67986;SDS011;54767;53.800;15.956;2023-08-07T10:42:07;4.20;;;2.30;;
67986;SDS011;54767;53.800;15.956;2023-08-07T10:44:44;3.10;;;2.10;;
67986;SDS011;54767;53.800;15.956;2023-08-07T10:47:32;2.30;;;1.90;;
67986;SDS011;54767;53.800;15.956;2023-08-07T10:50:09;2.70;;;2.20;;
67986;SDS011;54767;53.800;15.956;2023-08-07T10:52:38;3.30;;;2.30;;
67986;SDS011;54767;53.800;15.956;2023-08-07T10:55:13;3.60;;;2.20;;
67986;SDS011;54767;53.800;15.956;2023-08-07T10:57:42;3.20;;;2.10;;
67986;SDS011;54767;53.800;15.956;2023-08-07T11:00:12;3.40;;;2.20;;
67986;SDS011;54767;53.800;15.956;2023-08-07T11:02:41;6.70;;;2.60;;
67986;SDS011;54767;53.800;15.956;2023-08-07T11:05:10;4.70;;;2.40;;
67986;SDS011;54767;53.800;15.956;2023-08-07T11:07:40;3.60;;;2.40;;
67986;SDS011;54767;53.800;15.956;2023-08-07T11:10:09;6.80;;;2.40;;
67986;SDS011;54767;53.800;15.956;2023-08-07T11:12:43;4.30;;;2.40;;
67986;SDS011;54767;53.800;15.956;2023-08-07T11:15:12;6.70;;;2.70;;
67986;SDS011;54767;53.800;15.956;2023-08-07T11:17:41;5.00;;;2.50;;
67986;SDS011;54767;53.800;15.956;2023-08-07T11:20:11;3.10;;;2.40;;
67986;SDS011;54767;53.800;15.956;2023-08-07T11:22:42;4.70;;;2.30;;
67986;SDS011;54767;53.800;15.956;2023-08-07T11:25:11;7.20;;;3.50;;
67986;SDS011;54767;53.800;15.956;2023-08-07T11:27:43;9.10;;;2.70;;
67986;SDS011;54767;53.800;15.956;2023-08-07T11:30:14;7.70;;;2.80;;
67986;SDS011;54767;53.800;15.956;2023-08-07T11:32:42;5.60;;;3.00;;
67986;SDS011;54767;53.800;15.956;2023-08-07T11:35:11;4.30;;;2.50;;
67986;SDS011;54767;53.800;15.956;2023-08-07T11:37:46;5.20;;;2.40;;
67986;SDS011;54767;53.800;15.956;2023-08-07T11:40:27;5.80;;;2.50;;
67986;SDS011;54767;53.800;15.956;2023-08-07T11:42:56;7.90;;;2.60;;
67986;SDS011;54767;53.800;15.956;2023-08-07T11:45:25;6.40;;;2.70;;
67986;SDS011;54767;53.800;15.956;2023-08-07T11:47:53;8.00;;;2.80;;
67986;SDS011;54767;53.800;15.956;2023-08-07T11:50:27;8.20;;;2.80;;
67986;SDS011;54767;53.800;15.956;2023-08-07T11:52:57;6.40;;;2.60;;
67986;SDS011;54767;53.800;15.956;2023-08-07T11:55:28;7.60;;;2.70;;
67986;SDS011;54767;53.800;15.956;2023-08-07T11:58:02;4.20;;;2.50;;
67986;SDS011;54767;53.800;15.956;2023-08-07T12:00:32;6.80;;;2.50;;
67986;SDS011;54767;53.800;15.956;2023-08-07T12:03:22;6.30;;;2.40;;
67986;SDS011;54767;53.800;15.956;2023-08-07T12:05:55;3.90;;;2.40;;
67986;SDS011;54767;53.800;15.956;2023-08-07T12:08:25;7.60;;;2.60;;
67986;SDS011;54767;53.800;15.956;2023-08-07T12:11:06;6.50;;;2.50;;
67986;SDS011;54767;53.800;15.956;2023-08-07T12:13:42;5.40;;;2.80;;
67986;SDS011;54767;53.800;15.956;2023-08-07T12:16:13;5.30;;;2.60;;
67986;SDS011;54767;53.800;15.956;2023-08-07T12:18:52;6.30;;;2.80;;
67986;SDS011;54767;53.800;15.956;2023-08-07T12:21:21;7.00;;;2.50;;
67986;SDS011;54767;53.800;15.956;2023-08-07T12:23:58;7.40;;;2.80;;
67986;SDS011;54767;53.800;15.956;2023-08-07T12:26:27;7.70;;;2.80;;
67986;SDS011;54767;53.800;15.956;2023-08-07T12:28:55;4.50;;;2.50;;
67986;SDS011;54767;53.800;15.956;2023-08-07T12:31:24;6.10;;;2.80;;
67986;SDS011;54767;53.800;15.956;2023-08-07T12:33:56;6.20;;;2.60;;
67986;SDS011;54767;53.800;15.956;2023-08-07T12:36:44;7.30;;;2.60;;
67986;SDS011;54767;53.800;15.956;2023-08-07T12:39:12;6.20;;;2.60;;
67986;SDS011;54767;53.800;15.956;2023-08-07T12:41:42;6.00;;;2.50;;
67986;SDS011;54767;53.800;15.956;2023-08-07T12:44:31;4.50;;;2.60;;
67986;SDS011;54767;53.800;15.956;2023-08-07T12:46:59;6.70;;;2.80;;
67986;SDS011;54767;53.800;15.956;2023-08-07T12:49:29;8.40;;;3.10;;
67986;SDS011;54767;53.800;15.956;2023-08-07T12:51:58;7.70;;;3.00;;
67986;SDS011;54767;53.800;15.956;2023-08-07T12:54:32;8.80;;;3.20;;
67986;SDS011;54767;53.800;15.956;2023-08-07T12:57:01;6.60;;;2.70;;
67986;SDS011;54767;53.800;15.956;2023-08-07T12:59:30;6.40;;;2.80;;
67986;SDS011;54767;53.800;15.956;2023-08-07T13:01:58;7.30;;;2.90;;
67986;SDS011;54767;53.800;15.956;2023-08-07T13:04:26;7.80;;;3.20;;
67986;SDS011;54767;53.800;15.956;2023-08-07T13:06:55;8.50;;;3.20;;
67986;SDS011;54767;53.800;15.956;2023-08-07T13:09:26;9.60;;;3.10;;
67986;SDS011;54767;53.800;15.956;2023-08-07T13:11:55;6.50;;;2.70;;
67986;SDS011;54767;53.800;15.956;2023-08-07T13:14:23;9.20;;;3.00;;
67986;SDS011;54767;53.800;15.956;2023-08-07T13:16:52;8.30;;;2.90;;
67986;SDS011;54767;53.800;15.956;2023-08-07T13:19:20;8.40;;;3.20;;
67986;SDS011;54767;53.800;15.956;2023-08-07T13:21:49;6.50;;;3.00;;
67986;SDS011;54767;53.800;15.956;2023-08-07T13:24:17;8.30;;;3.20;;
67986;SDS011;54767;53.800;15.956;2023-08-07T13:26:46;8.90;;;2.90;;
67986;SDS011;54767;53.800;15.956;2023-08-07T13:29:14;11.90;;;3.20;;
67986;SDS011;54767;53.800;15.956;2023-08-07T13:31:43;9.50;;;3.10;;
67986;SDS011;54767;53.800;15.956;2023-08-07T13:34:15;6.80;;;3.00;;
67986;SDS011;54767;53.800;15.956;2023-08-07T13:37:01;9.00;;;3.40;;
67986;SDS011;54767;53.800;15.956;2023-08-07T13:39:30;8.20;;;3.00;;
67986;SDS011;54767;53.800;15.956;2023-08-07T13:42:04;7.20;;;2.90;;
67986;SDS011;54767;53.800;15.956;2023-08-07T13:44:36;9.10;;;3.10;;
67986;SDS011;54767;53.800;15.956;2023-08-07T13:47:05;4.50;;;2.80;;
67986;SDS011;54767;53.800;15.956;2023-08-07T13:49:34;8.00;;;3.00;;
67986;SDS011;54767;53.800;15.956;2023-08-07T13:52:07;7.30;;;2.80;;
67986;SDS011;54767;53.800;15.956;2023-08-07T13:54:36;7.60;;;3.00;;
67986;SDS011;54767;53.800;15.956;2023-08-07T13:57:05;7.20;;;3.10;;
67986;SDS011;54767;53.800;15.956;2023-08-07T13:59:34;7.00;;;3.20;;
67986;SDS011;54767;53.800;15.956;2023-08-07T14:02:02;8.50;;;2.90;;
67986;SDS011;54767;53.800;15.956;2023-08-07T14:04:31;7.30;;;2.90;;
67986;SDS011;54767;53.800;15.956;2023-08-07T14:06:59;8.70;;;3.10;;
67986;SDS011;54767;53.800;15.956;2023-08-07T14:09:28;9.30;;;3.20;;
67986;SDS011;54767;53.800;15.956;2023-08-07T14:11:56;7.70;;;2.90;;
67986;SDS011;54767;53.800;15.956;2023-08-07T14:14:25;6.90;;;3.20;;
67986;SDS011;54767;53.800;15.956;2023-08-07T14:16:54;6.00;;;2.70;;
67986;SDS011;54767;53.800;15.956;2023-08-07T14:19:25;8.10;;;2.90;;
67986;SDS011;54767;53.800;15.956;2023-08-07T14:21:54;6.90;;;3.00;;
67986;SDS011;54767;53.800;15.956;2023-08-07T14:24:26;6.40;;;2.80;;
67986;SDS011;54767;53.800;15.956;2023-08-07T14:26:54;6.80;;;3.20;;
67986;SDS011;54767;53.800;15.956;2023-08-07T14:29:25;10.20;;;2.90;;
67986;SDS011;54767;53.800;15.956;2023-08-07T14:31:53;8.70;;;2.80;;
67986;SDS011;54767;53.800;15.956;2023-08-07T14:34:22;9.20;;;2.90;;
67986;SDS011;54767;53.800;15.956;2023-08-07T14:36:50;8.50;;;3.40;;
67986;SDS011;54767;53.800;15.956;2023-08-07T14:39:20;7.10;;;2.90;;
67986;SDS011;54767;53.800;15.956;2023-08-07T14:41:51;12.60;;;4.00;;
67986;SDS011;54767;53.800;15.956;2023-08-07T14:44:20;10.20;;;3.40;;
67986;SDS011;54767;53.800;15.956;2023-08-07T14:46:49;6.40;;;2.90;;
67986;SDS011;54767;53.800;15.956;2023-08-07T14:49:19;6.50;;;3.10;;
67986;SDS011;54767;53.800;15.956;2023-08-07T14:51:48;7.10;;;2.90;;
67986;SDS011;54767;53.800;15.956;2023-08-07T14:54:17;9.20;;;3.30;;
67986;SDS011;54767;53.800;15.956;2023-08-07T14:56:46;10.10;;;3.20;;
67986;SDS011;54767;53.800;15.956;2023-08-07T14:59:14;11.00;;;3.40;;